createdAt,value
2017-07-06T00:00:57.283Z,99212.87
2017-07-06T00:03:24.425Z,99211.79
2017-07-06T00:05:52.025Z,99214.09
2017-07-06T00:09:52.161Z,99225.00
2017-07-06T00:12:19.747Z,99219.88
2017-07-06T00:14:47.324Z,99220.04
2017-07-06T00:17:15.021Z,99222.34
2017-07-06T00:19:42.623Z,99226.05
2017-07-06T00:22:10.213Z,99221.68
2017-07-06T00:24:37.890Z,99219.16
2017-07-06T00:27:05.491Z,99215.24
2017-07-06T00:29:32.637Z,99223.32
2017-07-06T00:32:00.268Z,99220.46
2017-07-06T00:34:27.401Z,99218.72
2017-07-06T00:36:54.570Z,99215.93
2017-07-06T00:39:21.769Z,99225.69
2017-07-06T00:41:49.354Z,99218.72
2017-07-06T00:44:16.516Z,99224.99
2017-07-06T00:46:43.708Z,99222.63
2017-07-06T00:49:11.299Z,99216.91
2017-07-06T00:51:38.446Z,99219.40
2017-07-06T00:54:05.646Z,99219.20
2017-07-06T00:56:32.821Z,99217.07
2017-07-06T00:58:59.956Z,99223.73
2017-07-06T01:04:32.246Z,99221.37
2017-07-06T01:06:59.383Z,99222.77
2017-07-06T01:09:26.560Z,99221.92
2017-07-06T01:11:54.184Z,99225.07
2017-07-06T01:14:21.482Z,99228.48
2017-07-06T01:16:48.625Z,99228.19
2017-07-06T01:19:15.796Z,99233.02
2017-07-06T01:21:42.919Z,99238.27
2017-07-06T01:24:10.047Z,99229.63
2017-07-06T01:27:25.095Z,99227.32
2017-07-06T01:31:20.278Z,99232.35
2017-07-06T01:33:47.455Z,99232.02
2017-07-06T01:38:01.127Z,99232.05
2017-07-06T01:40:28.301Z,99234.28
2017-07-06T01:42:55.465Z,99231.02
2017-07-06T01:47:29.157Z,99236.70
2017-07-06T01:51:22.772Z,99228.12
2017-07-06T01:57:33.053Z,99233.91
2017-07-06T02:01:17.692Z,99231.34
2017-07-06T02:03:44.878Z,99237.17
2017-07-06T02:06:12.215Z,99231.16
2017-07-06T02:10:46.941Z,99227.75
2017-07-06T02:13:14.074Z,99230.47
2017-07-06T02:15:41.257Z,99231.72
2017-07-06T02:20:29.659Z,99227.72
2017-07-06T02:22:56.928Z,99226.52
2017-07-06T02:25:24.096Z,99229.22
2017-07-06T02:30:31.411Z,99241.20
2017-07-06T02:34:36.834Z,99247.15
2017-07-06T02:39:27.263Z,99248.58
2017-07-06T02:44:20.789Z,99249.98
2017-07-06T02:46:48.005Z,99251.53
2017-07-06T02:53:23.186Z,99258.31
2017-07-06T03:02:06.575Z,99260.57
2017-07-06T03:04:33.788Z,99258.28
2017-07-06T03:07:00.973Z,99266.70
2017-07-06T03:09:28.175Z,99263.69
2017-07-06T03:20:39.484Z,99281.67
2017-07-06T03:23:06.694Z,99283.32
2017-07-06T03:26:52.087Z,99281.36
2017-07-06T03:29:19.245Z,99290.39
2017-07-06T03:31:46.394Z,99287.89
2017-07-06T03:37:38.397Z,99282.06
2017-07-06T03:45:39.426Z,99274.70
2017-07-06T03:54:49.718Z,99293.00
2017-07-06T03:57:16.864Z,99295.66
2017-07-06T04:18:12.616Z,99311.91
2017-07-06T04:26:01.234Z,99316.90
2017-07-06T04:34:28.767Z,99307.63
2017-07-06T04:36:55.922Z,99312.20
2017-07-06T04:39:23.048Z,99320.20
2017-07-06T04:41:50.234Z,99320.47
2017-07-06T04:50:46.499Z,99328.55
2017-07-06T04:53:13.645Z,99328.45
2017-07-06T05:00:17.063Z,99332.89
2017-07-06T05:03:54.760Z,99338.33
2017-07-06T05:08:48.139Z,99336.11
2017-07-06T05:16:43.427Z,99338.09
2017-07-06T05:23:06.838Z,99350.00
2017-07-06T05:35:00.779Z,99347.11
2017-07-06T05:41:07.604Z,99340.54
2017-07-06T05:43:34.807Z,99338.65
2017-07-06T05:46:01.934Z,99341.22
2017-07-06T05:49:24.863Z,99341.06
2017-07-06T05:54:07.170Z,99345.80
2017-07-06T05:59:23.550Z,99340.09
2017-07-06T06:03:36.572Z,99335.50
2017-07-06T06:06:03.752Z,99339.08
2017-07-06T06:08:30.927Z,99341.70
2017-07-06T06:10:58.075Z,99345.58
2017-07-06T06:14:13.755Z,99337.15
2017-07-06T06:16:40.887Z,99339.75
2017-07-06T06:19:08.035Z,99341.39
2017-07-06T06:21:35.219Z,99342.38
2017-07-06T06:25:21.221Z,99343.53
2017-07-06T06:27:48.434Z,99347.08
2017-07-06T06:30:15.578Z,99349.19
2017-07-06T06:32:42.701Z,99352.23
2017-07-06T06:35:09.871Z,99351.30
2017-07-06T06:37:37.015Z,99351.23
2017-07-06T06:43:19.037Z,99353.27
2017-07-06T06:45:46.203Z,99351.10
2017-07-06T06:51:42.455Z,99353.67
2017-07-06T06:56:32.835Z,99357.98
2017-07-06T07:06:03.448Z,99346.92
2017-07-06T07:08:30.574Z,99349.45
2017-07-06T07:10:57.711Z,99353.03
2017-07-06T07:13:24.925Z,99351.62
2017-07-06T07:25:30.874Z,99350.12
2017-07-06T07:27:58.094Z,99350.06
2017-07-06T07:30:25.222Z,99352.75
2017-07-06T07:32:52.398Z,99353.20
2017-07-06T07:37:58.084Z,99354.06
2017-07-06T07:40:25.231Z,99350.48
2017-07-06T07:45:03.136Z,99354.83
2017-07-06T07:52:16.757Z,99354.30
2017-07-06T07:54:43.887Z,99354.27
2017-07-06T07:59:15.428Z,99351.64
2017-07-06T08:05:22.772Z,99348.46
2017-07-06T08:07:49.889Z,99346.27
2017-07-06T08:10:17.026Z,99341.83
2017-07-06T08:12:44.194Z,99344.89
2017-07-06T08:16:49.914Z,99346.17
2017-07-06T08:19:59.300Z,99339.14
2017-07-06T08:22:26.433Z,99344.82
2017-07-06T08:24:53.586Z,99341.67
2017-07-06T08:27:20.760Z,99337.30
2017-07-06T08:29:47.903Z,99335.10
2017-07-06T08:32:15.094Z,99334.19
2017-07-06T08:34:42.249Z,99337.64
2017-07-06T08:40:07.345Z,99334.55
2017-07-06T08:49:34.314Z,99320.86
2017-07-06T08:52:01.543Z,99320.39
2017-07-06T08:54:28.674Z,99326.08
2017-07-06T09:00:39.376Z,99319.84
2017-07-06T09:12:12.954Z,99326.68
2017-07-06T09:14:40.114Z,99317.48
2017-07-06T09:17:07.249Z,99321.36
2017-07-06T09:20:18.799Z,99311.67
2017-07-06T09:27:25.042Z,99310.72
2017-07-06T09:29:52.167Z,99312.00
2017-07-06T09:32:19.296Z,99313.64
2017-07-06T09:34:46.474Z,99311.88
2017-07-06T09:37:13.605Z,99310.98
2017-07-06T09:40:43.371Z,99312.66
2017-07-06T09:43:10.512Z,99303.43
2017-07-06T09:49:36.924Z,99309.02
2017-07-06T09:52:55.339Z,99297.16
2017-07-06T09:55:22.504Z,99300.58
2017-07-06T09:57:49.657Z,99296.56
2017-07-06T10:00:16.821Z,99295.65
2017-07-06T10:03:04.626Z,99299.53
2017-07-06T10:05:31.767Z,99299.06
2017-07-06T10:07:58.914Z,99298.12
2017-07-06T10:12:42.567Z,99291.02
2017-07-06T10:17:11.058Z,99289.18
2017-07-06T10:19:38.257Z,99290.42
2017-07-06T10:22:05.400Z,99291.71
2017-07-06T10:24:32.519Z,99287.70
2017-07-06T10:28:33.871Z,99279.26
2017-07-06T10:35:27.256Z,99284.38
2017-07-06T10:39:12.324Z,99280.38
2017-07-06T10:41:39.522Z,99281.62
2017-07-06T10:46:59.826Z,99271.92
2017-07-06T10:49:26.966Z,99278.07
2017-07-06T10:51:54.107Z,99281.06
2017-07-06T10:54:21.291Z,99281.45
2017-07-06T10:56:48.427Z,99277.48
2017-07-06T10:59:15.586Z,99277.41
2017-07-06T11:01:42.776Z,99276.53
2017-07-06T11:04:09.913Z,99273.44
2017-07-06T11:06:37.054Z,99277.74
2017-07-06T11:12:52.628Z,99263.14
2017-07-06T11:15:19.773Z,99260.02
2017-07-06T11:17:46.919Z,99263.44
2017-07-06T11:20:14.090Z,99268.20
2017-07-06T11:24:42.516Z,99264.63
2017-07-06T11:27:09.715Z,99264.59
2017-07-06T11:29:36.847Z,99266.69
2017-07-06T11:32:22.050Z,99268.33
2017-07-06T11:35:18.872Z,99263.99
2017-07-06T11:40:19.715Z,99262.55
2017-07-06T11:54:43.845Z,99244.22
2017-07-06T11:57:10.981Z,99236.23
2017-07-06T12:00:56.357Z,99226.52
2017-07-06T12:03:23.501Z,99229.52
2017-07-06T12:05:50.631Z,99235.17
2017-07-06T12:15:18.824Z,99227.56
2017-07-06T12:17:45.960Z,99224.88
2017-07-06T12:20:13.093Z,99227.89
2017-07-06T12:24:17.037Z,99209.91
2017-07-06T12:26:44.159Z,99205.50
2017-07-06T12:29:11.358Z,99201.55
2017-07-06T12:31:38.569Z,99205.00
2017-07-06T12:34:05.697Z,99204.54
2017-07-06T12:36:32.828Z,99207.56
2017-07-06T12:40:46.764Z,99207.45
2017-07-06T12:45:22.071Z,99199.46
2017-07-06T12:47:49.265Z,99192.45
2017-07-06T12:50:16.407Z,99194.95
2017-07-06T12:52:43.542Z,99191.43
2017-07-06T12:57:59.554Z,99179.91
2017-07-06T13:00:26.698Z,99180.34
2017-07-06T13:02:53.841Z,99180.73
2017-07-06T13:06:00.846Z,99185.53
2017-07-06T13:10:56.585Z,99181.48
2017-07-06T13:14:26.847Z,99185.75
2017-07-06T13:16:53.986Z,99185.71
2017-07-06T13:20:44.374Z,99187.88
2017-07-06T13:29:56.223Z,99180.20
2017-07-06T13:35:35.251Z,99170.96
2017-07-06T13:38:02.388Z,99163.42
2017-07-06T13:41:17.879Z,99164.80
2017-07-06T13:43:45.023Z,99159.86
2017-07-06T13:46:12.209Z,99156.27
2017-07-06T13:48:39.396Z,99154.06
2017-07-06T13:51:07.006Z,99153.18
2017-07-06T13:53:34.608Z,99145.67
2017-07-06T13:58:10.475Z,99143.05
2017-07-06T14:00:37.611Z,99139.09
2017-07-06T14:03:43.653Z,99143.39
2017-07-06T14:06:10.791Z,99132.77
2017-07-06T14:09:08.122Z,99134.00
2017-07-06T14:11:57.374Z,99129.09
2017-07-06T14:14:24.567Z,99122.91
2017-07-06T14:18:29.564Z,99113.16
2017-07-06T14:20:56.747Z,99102.20
2017-07-06T14:23:23.877Z,99096.02
2017-07-06T14:28:12.041Z,99088.90
2017-07-06T14:30:39.164Z,99084.45
2017-07-06T14:33:06.291Z,99081.81
2017-07-06T14:38:06.970Z,99075.23
2017-07-06T14:40:34.108Z,99077.38
2017-07-06T14:43:01.238Z,99077.80
2017-07-06T14:45:29.358Z,99067.23
2017-07-06T14:48:50.665Z,99062.81
2017-07-06T14:51:17.840Z,99062.81
2017-07-06T14:53:44.976Z,99071.88
2017-07-06T14:56:12.123Z,99070.92
2017-07-06T14:58:39.327Z,99071.88
2017-07-06T15:03:05.398Z,99067.86
2017-07-06T15:05:32.592Z,99073.98
2017-07-06T15:07:59.868Z,99078.32
2017-07-06T15:11:27.424Z,99075.19
2017-07-06T15:18:16.695Z,99068.46
2017-07-06T15:20:44.287Z,99065.41
2017-07-06T15:23:11.403Z,99065.33
2017-07-06T15:25:38.587Z,99071.80
2017-07-06T15:28:05.726Z,99072.27
2017-07-06T15:30:33.296Z,99079.66
2017-07-06T15:33:00.466Z,99074.44
2017-07-06T15:35:27.620Z,99077.88
2017-07-06T15:42:49.888Z,99068.12
2017-07-06T15:54:29.287Z,99068.45
2017-07-06T15:58:09.423Z,99066.67
2017-07-06T16:01:35.765Z,99060.44
2017-07-06T16:04:02.889Z,99052.92
2017-07-06T16:06:30.019Z,99054.67
2017-07-06T16:08:57.200Z,99048.41
2017-07-06T16:12:17.161Z,99044.41
2017-07-06T16:14:44.805Z,99036.44
2017-07-06T16:17:11.957Z,99048.68
2017-07-06T16:19:39.216Z,99046.47
2017-07-06T16:22:06.367Z,99041.09
2017-07-06T16:24:33.958Z,99038.46
2017-07-06T16:27:01.562Z,99031.84
2017-07-06T16:29:28.744Z,99035.25
2017-07-06T16:33:59.617Z,99033.05
2017-07-06T16:36:26.774Z,99032.58
2017-07-06T16:38:53.926Z,99028.59
2017-07-06T16:41:21.076Z,99028.48
2017-07-06T16:43:48.241Z,99021.51
2017-07-06T16:46:15.393Z,99018.37
2017-07-06T16:55:01.326Z,99011.32
2017-07-06T16:57:28.455Z,99007.73
2017-07-06T16:59:55.595Z,99004.63
2017-07-06T17:02:23.248Z,98999.32
2017-07-06T17:04:50.376Z,98999.78
2017-07-06T17:07:17.508Z,99004.59
2017-07-06T17:09:44.693Z,99003.63
2017-07-06T17:12:11.816Z,99005.37
2017-07-06T17:19:55.841Z,99008.31
2017-07-06T17:22:22.955Z,99010.48
2017-07-06T17:26:41.309Z,99009.95
2017-07-06T17:30:13.955Z,99007.73
2017-07-06T17:32:41.694Z,99010.80
2017-07-06T17:35:37.666Z,99007.27
2017-07-06T17:38:05.012Z,99004.21
2017-07-06T17:40:32.375Z,99007.66
2017-07-06T17:44:28.229Z,99007.59
2017-07-06T17:48:30.628Z,99016.94
2017-07-06T17:50:57.829Z,99023.59
2017-07-06T17:53:25.094Z,99028.44
2017-07-06T17:55:52.347Z,99027.05
2017-07-06T17:59:18.583Z,99030.84
2017-07-06T18:01:45.723Z,99038.70
2017-07-06T18:04:12.848Z,99036.00
2017-07-06T18:06:40.501Z,99030.26
2017-07-06T18:09:07.628Z,99028.05
2017-07-06T18:11:35.219Z,99016.20
2017-07-06T18:14:02.419Z,99020.58
2017-07-06T18:16:29.553Z,99013.52
2017-07-06T18:18:56.698Z,99013.41
2017-07-06T18:21:24.345Z,99019.95
2017-07-06T18:23:51.462Z,99013.61
2017-07-06T18:27:49.389Z,99017.05
2017-07-06T18:30:16.535Z,99021.00
2017-07-06T18:32:43.655Z,99024.53
2017-07-06T18:35:10.828Z,99023.52
2017-07-06T18:37:38.431Z,99022.20
2017-07-06T18:40:05.566Z,99023.41
2017-07-06T18:42:32.728Z,99027.33
2017-07-06T18:44:59.985Z,99036.55
2017-07-06T18:47:27.140Z,99037.87
2017-07-06T18:49:54.304Z,99039.92
2017-07-06T18:52:21.888Z,99034.19
2017-07-06T18:55:31.418Z,99032.75
2017-07-06T18:57:58.572Z,99035.34
2017-07-06T19:00:26.152Z,99043.68
2017-07-06T19:02:53.338Z,99050.16
2017-07-06T19:05:20.472Z,99051.00
2017-07-06T19:07:47.621Z,99059.69
2017-07-06T19:10:14.827Z,99067.59
2017-07-06T19:12:42.413Z,99065.81
2017-07-06T19:15:09.545Z,99068.88
2017-07-06T19:17:36.710Z,99069.26
2017-07-06T19:20:04.320Z,99082.74
2017-07-06T19:22:31.906Z,99085.61
2017-07-06T19:24:59.104Z,99088.23
2017-07-06T19:27:26.232Z,99089.85
2017-07-06T19:32:19.660Z,99085.66
2017-07-06T19:34:46.811Z,99092.39
2017-07-06T19:37:13.943Z,99106.02
2017-07-06T19:39:41.566Z,99115.59
2017-07-06T19:42:08.693Z,99122.02
2017-07-06T19:44:35.817Z,99126.08
2017-07-06T19:47:03.030Z,99131.60
2017-07-06T19:49:47.306Z,99134.70
2017-07-06T19:52:14.486Z,99132.67
2017-07-06T19:54:41.651Z,99129.59
2017-07-06T19:58:19.104Z,99130.73
2017-07-06T20:00:46.243Z,99133.88
2017-07-06T20:06:03.826Z,99137.05
2017-07-06T20:08:30.968Z,99131.36
2017-07-06T20:10:58.102Z,99129.30
2017-07-06T20:13:25.764Z,99122.57
2017-07-06T20:15:53.009Z,99115.63
2017-07-06T20:18:20.138Z,99114.50
2017-07-06T20:20:47.316Z,99114.22
2017-07-06T20:23:14.444Z,99115.85
2017-07-06T20:25:42.348Z,99116.95
2017-07-06T20:28:10.091Z,99114.08
2017-07-06T20:30:37.231Z,99117.71
2017-07-06T20:33:04.368Z,99122.13
2017-07-06T20:35:31.575Z,99129.34
2017-07-06T20:37:58.706Z,99128.10
2017-07-06T20:40:25.825Z,99128.03
2017-07-06T20:42:53.014Z,99126.86
2017-07-06T20:45:20.152Z,99120.48
2017-07-06T20:47:47.302Z,99124.86
2017-07-06T20:50:14.550Z,99124.83
2017-07-06T20:55:23.853Z,99124.40
2017-07-06T21:00:30.477Z,99125.39
2017-07-06T21:02:57.628Z,99123.19
2017-07-06T21:05:25.002Z,99121.81
2017-07-06T21:07:52.258Z,99119.10
2017-07-06T21:12:00.479Z,99117.81
2017-07-06T21:14:27.833Z,99120.62
2017-07-06T21:16:54.970Z,99118.73
2017-07-06T21:19:22.644Z,99112.12
2017-07-06T21:21:49.848Z,99121.76
2017-07-06T21:24:17.147Z,99126.45
2017-07-06T21:26:44.274Z,99123.72
2017-07-06T21:29:11.451Z,99123.25
2017-07-06T21:31:38.574Z,99121.40
2017-07-06T21:34:05.698Z,99123.14
2017-07-06T21:36:32.995Z,99123.72
2017-07-06T21:40:00.104Z,99123.67
2017-07-06T21:43:30.385Z,99123.99
2017-07-06T21:45:57.521Z,99121.36
2017-07-06T21:48:24.662Z,99124.25
2017-07-06T21:50:51.847Z,99119.13
2017-07-06T21:53:18.968Z,99111.94
2017-07-06T21:55:46.091Z,99105.02
2017-07-06T21:58:13.287Z,99104.80
2017-07-06T22:00:40.433Z,99105.09
2017-07-06T22:05:52.836Z,99119.17
2017-07-06T22:08:19.971Z,99115.61
2017-07-06T22:11:51.323Z,99103.13
2017-07-06T22:14:18.464Z,99106.89
2017-07-06T22:19:49.282Z,99107.06
2017-07-06T22:23:26.212Z,99103.58
2017-07-06T22:25:53.418Z,99097.42
2017-07-06T22:28:20.556Z,99105.00
2017-07-06T22:30:47.713Z,99105.89
2017-07-06T22:35:08.931Z,99115.53
2017-07-06T22:37:36.078Z,99121.27
2017-07-06T22:40:03.218Z,99118.73
2017-07-06T22:42:30.393Z,99121.94
2017-07-06T22:44:57.518Z,99115.93
2017-07-06T22:47:24.650Z,99120.30
2017-07-06T22:50:08.798Z,99124.04
2017-07-06T22:52:36.495Z,99117.99
2017-07-06T22:55:03.606Z,99120.48
2017-07-06T22:57:31.011Z,99121.20
2017-07-06T22:59:58.157Z,99125.68
2017-07-06T23:04:59.927Z,99118.61
2017-07-06T23:07:27.048Z,99124.55
2017-07-06T23:09:54.190Z,99126.78
2017-07-06T23:12:21.356Z,99129.23
2017-07-06T23:14:48.505Z,99136.56
2017-07-06T23:17:15.645Z,99136.45
2017-07-06T23:19:42.847Z,99131.69
2017-07-06T23:22:09.972Z,99124.78
2017-07-06T23:24:37.115Z,99128.14
2017-07-06T23:27:04.279Z,99138.23
2017-07-06T23:29:31.407Z,99136.23
2017-07-06T23:31:58.553Z,99131.59
2017-07-06T23:34:25.737Z,99122.45
2017-07-06T23:36:52.866Z,99114.04
2017-07-06T23:40:56.051Z,99106.49
2017-07-06T23:43:23.183Z,99118.75
2017-07-06T23:45:50.339Z,99117.95
2017-07-06T23:48:17.530Z,99127.88
2017-07-06T23:53:56.892Z,99146.61
2017-07-06T23:56:24.027Z,99136.83
2017-07-06T23:58:51.164Z,99132.67
